sensor_id;sensor_type;location;lat;lon;timestamp;P1;durP1;ratioP1;P2;durP2;ratioP2
53931;SDS011;39844;52.496;13.482;2023-05-15T00:01:46;7.97;;;4.33;;
53931;SDS011;39844;52.496;13.482;2023-05-15T00:04:12;5.47;;;4.73;;
53931;SDS011;39844;52.496;13.482;2023-05-15T00:06:37;7.37;;;4.43;;
53931;SDS011;39844;52.496;13.482;2023-05-15T00:09:02;8.03;;;5.43;;
53931;SDS011;39844;52.496;13.482;2023-05-15T00:11:28;8.07;;;4.07;;
53931;SDS011;39844;52.496;13.482;2023-05-15T00:13:53;5.67;;;5.03;;
53931;SDS011;39844;52.496;13.482;2023-05-15T00:16:18;4.63;;;4.20;;
53931;SDS011;39844;52.496;13.482;2023-05-15T00:18:43;6.97;;;5.00;;
53931;SDS011;39844;52.496;13.482;2023-05-15T00:21:09;5.33;;;4.57;;
53931;SDS011;39844;52.496;13.482;2023-05-15T00:23:34;5.47;;;4.40;;
53931;SDS011;39844;52.496;13.482;2023-05-15T00:25:59;7.63;;;5.40;;
53931;SDS011;39844;52.496;13.482;2023-05-15T00:28:25;8.53;;;4.87;;
53931;SDS011;39844;52.496;13.482;2023-05-15T00:30:50;6.50;;;4.70;;
53931;SDS011;39844;52.496;13.482;2023-05-15T00:33:16;7.37;;;4.73;;
53931;SDS011;39844;52.496;13.482;2023-05-15T00:35:41;7.10;;;4.47;;
53931;SDS011;39844;52.496;13.482;2023-05-15T00:38:06;10.17;;;4.90;;
53931;SDS011;39844;52.496;13.482;2023-05-15T00:40:31;6.47;;;4.50;;
53931;SDS011;39844;52.496;13.482;2023-05-15T00:42:58;5.87;;;5.03;;
53931;SDS011;39844;52.496;13.482;2023-05-15T00:45:28;5.93;;;4.53;;
53931;SDS011;39844;52.496;13.482;2023-05-15T00:47:54;8.70;;;5.10;;
53931;SDS011;39844;52.496;13.482;2023-05-15T00:50:22;7.23;;;4.90;;
53931;SDS011;39844;52.496;13.482;2023-05-15T00:52:47;5.53;;;5.03;;
53931;SDS011;39844;52.496;13.482;2023-05-15T00:55:13;7.73;;;5.20;;
53931;SDS011;39844;52.496;13.482;2023-05-15T00:57:38;6.20;;;5.30;;
53931;SDS011;39844;52.496;13.482;2023-05-15T01:00:06;11.67;;;4.70;;
53931;SDS011;39844;52.496;13.482;2023-05-15T01:02:32;7.50;;;4.63;;
53931;SDS011;39844;52.496;13.482;2023-05-15T01:04:57;5.17;;;4.67;;
53931;SDS011;39844;52.496;13.482;2023-05-15T01:07:22;5.23;;;4.73;;
53931;SDS011;39844;52.496;13.482;2023-05-15T01:09:48;5.53;;;4.57;;
53931;SDS011;39844;52.496;13.482;2023-05-15T01:12:14;5.33;;;4.47;;
53931;SDS011;39844;52.496;13.482;2023-05-15T01:14:40;6.07;;;4.47;;
53931;SDS011;39844;52.496;13.482;2023-05-15T01:17:06;4.80;;;4.30;;
53931;SDS011;39844;52.496;13.482;2023-05-15T01:19:31;9.83;;;5.10;;
53931;SDS011;39844;52.496;13.482;2023-05-15T01:22:43;7.13;;;4.83;;
53931;SDS011;39844;52.496;13.482;2023-05-15T01:27:51;7.67;;;5.10;;
53931;SDS011;39844;52.496;13.482;2023-05-15T01:30:21;7.87;;;5.20;;
53931;SDS011;39844;52.496;13.482;2023-05-15T01:35:31;6.73;;;5.20;;
53931;SDS011;39844;52.496;13.482;2023-05-15T01:44:20;5.77;;;5.10;;
53931;SDS011;39844;52.496;13.482;2023-05-15T01:46:50;6.77;;;5.80;;
53931;SDS011;39844;52.496;13.482;2023-05-15T01:49:16;8.83;;;6.20;;
53931;SDS011;39844;52.496;13.482;2023-05-15T01:51:43;8.63;;;6.10;;
53931;SDS011;39844;52.496;13.482;2023-05-15T01:54:11;8.70;;;5.70;;
53931;SDS011;39844;52.496;13.482;2023-05-15T01:56:38;6.03;;;5.17;;
53931;SDS011;39844;52.496;13.482;2023-05-15T01:59:05;8.70;;;5.80;;
53931;SDS011;39844;52.496;13.482;2023-05-15T02:01:32;11.53;;;6.70;;
53931;SDS011;39844;52.496;13.482;2023-05-15T02:03:59;8.33;;;6.70;;
53931;SDS011;39844;52.496;13.482;2023-05-15T02:06:26;6.90;;;6.20;;
53931;SDS011;39844;52.496;13.482;2023-05-15T02:08:53;6.83;;;5.63;;
53931;SDS011;39844;52.496;13.482;2023-05-15T02:11:21;8.87;;;5.50;;
53931;SDS011;39844;52.496;13.482;2023-05-15T02:13:46;7.63;;;5.37;;
53931;SDS011;39844;52.496;13.482;2023-05-15T02:16:12;10.20;;;5.53;;
53931;SDS011;39844;52.496;13.482;2023-05-15T02:18:38;7.63;;;5.77;;
53931;SDS011;39844;52.496;13.482;2023-05-15T02:21:03;6.77;;;5.20;;
53931;SDS011;39844;52.496;13.482;2023-05-15T02:23:28;11.83;;;6.50;;
53931;SDS011;39844;52.496;13.482;2023-05-15T02:28:48;6.30;;;5.70;;
53931;SDS011;39844;52.496;13.482;2023-05-15T02:36:33;12.13;;;6.20;;
53931;SDS011;39844;52.496;13.482;2023-05-15T02:39:04;9.23;;;5.73;;
53931;SDS011;39844;52.496;13.482;2023-05-15T02:41:30;8.57;;;6.33;;
53931;SDS011;39844;52.496;13.482;2023-05-15T02:43:57;8.80;;;5.70;;
53931;SDS011;39844;52.496;13.482;2023-05-15T02:46:23;6.10;;;5.30;;
53931;SDS011;39844;52.496;13.482;2023-05-15T02:48:48;8.57;;;5.80;;
53931;SDS011;39844;52.496;13.482;2023-05-15T02:51:15;6.23;;;5.63;;
53931;SDS011;39844;52.496;13.482;2023-05-15T02:53:41;8.60;;;5.93;;
53931;SDS011;39844;52.496;13.482;2023-05-15T02:56:07;6.00;;;5.40;;
53931;SDS011;39844;52.496;13.482;2023-05-15T02:58:33;10.93;;;5.53;;
53931;SDS011;39844;52.496;13.482;2023-05-15T03:00:58;6.53;;;5.07;;
53931;SDS011;39844;52.496;13.482;2023-05-15T03:03:24;7.73;;;5.43;;
53931;SDS011;39844;52.496;13.482;2023-05-15T03:05:49;6.57;;;5.60;;
53931;SDS011;39844;52.496;13.482;2023-05-15T03:08:14;6.00;;;5.40;;
53931;SDS011;39844;52.496;13.482;2023-05-15T03:10:40;7.27;;;5.53;;
53931;SDS011;39844;52.496;13.482;2023-05-15T03:13:05;7.00;;;5.67;;
53931;SDS011;39844;52.496;13.482;2023-05-15T03:15:30;6.27;;;5.37;;
53931;SDS011;39844;52.496;13.482;2023-05-15T03:17:55;5.23;;;4.67;;
53931;SDS011;39844;52.496;13.482;2023-05-15T03:20:21;8.47;;;5.10;;
53931;SDS011;39844;52.496;13.482;2023-05-15T03:22:46;7.47;;;5.33;;
53931;SDS011;39844;52.496;13.482;2023-05-15T03:25:11;9.63;;;5.70;;
53931;SDS011;39844;52.496;13.482;2023-05-15T03:27:37;5.53;;;4.83;;
53931;SDS011;39844;52.496;13.482;2023-05-15T03:30:03;6.80;;;5.17;;
53931;SDS011;39844;52.496;13.482;2023-05-15T03:32:29;6.90;;;5.43;;
53931;SDS011;39844;52.496;13.482;2023-05-15T03:34:54;8.43;;;5.40;;
53931;SDS011;39844;52.496;13.482;2023-05-15T03:37:19;5.33;;;4.87;;
53931;SDS011;39844;52.496;13.482;2023-05-15T03:39:45;8.00;;;5.50;;
53931;SDS011;39844;52.496;13.482;2023-05-15T03:42:10;7.43;;;5.63;;
53931;SDS011;39844;52.496;13.482;2023-05-15T03:44:35;8.10;;;5.60;;
53931;SDS011;39844;52.496;13.482;2023-05-15T03:47:01;5.70;;;5.00;;
53931;SDS011;39844;52.496;13.482;2023-05-15T03:49:26;7.27;;;5.30;;
53931;SDS011;39844;52.496;13.482;2023-05-15T03:51:51;6.73;;;4.73;;
53931;SDS011;39844;52.496;13.482;2023-05-15T03:54:16;5.37;;;4.50;;
53931;SDS011;39844;52.496;13.482;2023-05-15T03:56:42;6.77;;;5.40;;
53931;SDS011;39844;52.496;13.482;2023-05-15T03:59:07;6.63;;;5.07;;
53931;SDS011;39844;52.496;13.482;2023-05-15T04:01:33;6.43;;;5.30;;
53931;SDS011;39844;52.496;13.482;2023-05-15T04:03:58;10.47;;;5.60;;
53931;SDS011;39844;52.496;13.482;2023-05-15T04:06:23;7.37;;;4.93;;
53931;SDS011;39844;52.496;13.482;2023-05-15T04:08:49;7.20;;;5.47;;
53931;SDS011;39844;52.496;13.482;2023-05-15T04:11:14;8.80;;;6.07;;
53931;SDS011;39844;52.496;13.482;2023-05-15T04:13:40;8.53;;;5.13;;
53931;SDS011;39844;52.496;13.482;2023-05-15T04:16:05;11.50;;;4.63;;
53931;SDS011;39844;52.496;13.482;2023-05-15T04:18:31;5.40;;;4.90;;
53931;SDS011;39844;52.496;13.482;2023-05-15T04:20:56;6.47;;;4.70;;
53931;SDS011;39844;52.496;13.482;2023-05-15T04:23:21;5.90;;;5.30;;
53931;SDS011;39844;52.496;13.482;2023-05-15T04:25:46;7.67;;;5.13;;
53931;SDS011;39844;52.496;13.482;2023-05-15T04:28:12;5.97;;;5.10;;
53931;SDS011;39844;52.496;13.482;2023-05-15T04:30:41;7.83;;;5.00;;
53931;SDS011;39844;52.496;13.482;2023-05-15T04:33:06;7.97;;;5.10;;
53931;SDS011;39844;52.496;13.482;2023-05-15T04:35:31;5.77;;;5.10;;
53931;SDS011;39844;52.496;13.482;2023-05-15T04:37:57;7.50;;;5.07;;
53931;SDS011;39844;52.496;13.482;2023-05-15T04:40:22;6.53;;;5.27;;
53931;SDS011;39844;52.496;13.482;2023-05-15T04:42:48;4.83;;;4.33;;
53931;SDS011;39844;52.496;13.482;2023-05-15T04:45:13;8.30;;;5.27;;
53931;SDS011;39844;52.496;13.482;2023-05-15T04:47:38;5.27;;;4.67;;
53931;SDS011;39844;52.496;13.482;2023-05-15T04:50:04;8.33;;;5.37;;
53931;SDS011;39844;52.496;13.482;2023-05-15T04:52:29;8.30;;;4.90;;
53931;SDS011;39844;52.496;13.482;2023-05-15T04:54:55;9.30;;;5.13;;
53931;SDS011;39844;52.496;13.482;2023-05-15T04:57:20;8.10;;;5.13;;
53931;SDS011;39844;52.496;13.482;2023-05-15T04:59:46;6.33;;;5.10;;
53931;SDS011;39844;52.496;13.482;2023-05-15T05:02:11;4.93;;;4.43;;
53931;SDS011;39844;52.496;13.482;2023-05-15T05:04:36;7.00;;;5.30;;
53931;SDS011;39844;52.496;13.482;2023-05-15T05:07:02;5.23;;;4.67;;
53931;SDS011;39844;52.496;13.482;2023-05-15T05:09:27;5.57;;;4.60;;
53931;SDS011;39844;52.496;13.482;2023-05-15T05:11:52;10.63;;;5.50;;
53931;SDS011;39844;52.496;13.482;2023-05-15T05:14:18;7.67;;;5.00;;
53931;SDS011;39844;52.496;13.482;2023-05-15T05:16:43;7.23;;;4.93;;
53931;SDS011;39844;52.496;13.482;2023-05-15T05:19:09;9.03;;;4.60;;
53931;SDS011;39844;52.496;13.482;2023-05-15T05:21:34;4.90;;;4.23;;
53931;SDS011;39844;52.496;13.482;2023-05-15T05:23:59;4.93;;;4.20;;
53931;SDS011;39844;52.496;13.482;2023-05-15T05:26:25;5.13;;;4.40;;
53931;SDS011;39844;52.496;13.482;2023-05-15T05:28:51;7.27;;;4.50;;
53931;SDS011;39844;52.496;13.482;2023-05-15T05:31:16;8.23;;;5.03;;
53931;SDS011;39844;52.496;13.482;2023-05-15T05:33:42;13.00;;;4.50;;
53931;SDS011;39844;52.496;13.482;2023-05-15T05:36:07;7.50;;;4.50;;
53931;SDS011;39844;52.496;13.482;2023-05-15T05:38:33;4.53;;;4.13;;
53931;SDS011;39844;52.496;13.482;2023-05-15T05:40:58;4.77;;;4.00;;
53931;SDS011;39844;52.496;13.482;2023-05-15T05:43:24;5.57;;;4.10;;
53931;SDS011;39844;52.496;13.482;2023-05-15T05:45:50;9.07;;;4.23;;
53931;SDS011;39844;52.496;13.482;2023-05-15T05:48:15;5.10;;;4.47;;
53931;SDS011;39844;52.496;13.482;2023-05-15T05:50:40;6.30;;;4.63;;
53931;SDS011;39844;52.496;13.482;2023-05-15T05:53:05;5.80;;;4.37;;
53931;SDS011;39844;52.496;13.482;2023-05-15T05:55:31;7.10;;;4.20;;
53931;SDS011;39844;52.496;13.482;2023-05-15T05:57:56;5.67;;;3.90;;
53931;SDS011;39844;52.496;13.482;2023-05-15T06:00:22;10.03;;;3.80;;
53931;SDS011;39844;52.496;13.482;2023-05-15T06:02:48;8.93;;;3.87;;
53931;SDS011;39844;52.496;13.482;2023-05-15T06:05:19;6.53;;;4.53;;
53931;SDS011;39844;52.496;13.482;2023-05-15T06:07:45;4.50;;;4.07;;
53931;SDS011;39844;52.496;13.482;2023-05-15T06:10:10;4.03;;;3.73;;
53931;SDS011;39844;52.496;13.482;2023-05-15T06:12:35;6.93;;;4.57;;
53931;SDS011;39844;52.496;13.482;2023-05-15T06:15:01;5.80;;;3.77;;
53931;SDS011;39844;52.496;13.482;2023-05-15T06:17:26;7.93;;;4.40;;
53931;SDS011;39844;52.496;13.482;2023-05-15T06:19:51;4.40;;;4.00;;
53931;SDS011;39844;52.496;13.482;2023-05-15T06:22:17;6.40;;;4.60;;
53931;SDS011;39844;52.496;13.482;2023-05-15T06:24:43;11.40;;;4.40;;
53931;SDS011;39844;52.496;13.482;2023-05-15T06:27:08;6.53;;;4.37;;
53931;SDS011;39844;52.496;13.482;2023-05-15T06:29:34;6.27;;;4.33;;
53931;SDS011;39844;52.496;13.482;2023-05-15T06:31:59;10.40;;;4.93;;
53931;SDS011;39844;52.496;13.482;2023-05-15T06:34:25;5.43;;;4.30;;
53931;SDS011;39844;52.496;13.482;2023-05-15T06:36:50;6.13;;;4.43;;
53931;SDS011;39844;52.496;13.482;2023-05-15T06:39:15;8.33;;;4.33;;
53931;SDS011;39844;52.496;13.482;2023-05-15T06:41:40;8.43;;;5.13;;
53931;SDS011;39844;52.496;13.482;2023-05-15T06:44:06;11.57;;;4.40;;
53931;SDS011;39844;52.496;13.482;2023-05-15T06:46:31;5.60;;;4.50;;
53931;SDS011;39844;52.496;13.482;2023-05-15T06:48:56;6.33;;;4.37;;
53931;SDS011;39844;52.496;13.482;2023-05-15T06:51:21;8.87;;;4.50;;
53931;SDS011;39844;52.496;13.482;2023-05-15T06:53:47;4.83;;;4.33;;
53931;SDS011;39844;52.496;13.482;2023-05-15T06:56:12;4.70;;;4.20;;
53931;SDS011;39844;52.496;13.482;2023-05-15T06:58:37;5.30;;;4.17;;
53931;SDS011;39844;52.496;13.482;2023-05-15T07:01:03;4.13;;;3.73;;
53931;SDS011;39844;52.496;13.482;2023-05-15T07:03:28;8.07;;;4.30;;
53931;SDS011;39844;52.496;13.482;2023-05-15T07:05:54;9.87;;;3.70;;
53931;SDS011;39844;52.496;13.482;2023-05-15T07:08:19;7.40;;;4.47;;
53931;SDS011;39844;52.496;13.482;2023-05-15T07:10:45;5.07;;;3.53;;
53931;SDS011;39844;52.496;13.482;2023-05-15T07:13:10;5.17;;;4.60;;
53931;SDS011;39844;52.496;13.482;2023-05-15T07:15:35;4.70;;;3.77;;
53931;SDS011;39844;52.496;13.482;2023-05-15T07:18:01;6.40;;;3.93;;
53931;SDS011;39844;52.496;13.482;2023-05-15T07:20:26;4.63;;;3.83;;
53931;SDS011;39844;52.496;13.482;2023-05-15T07:22:51;8.37;;;3.80;;
53931;SDS011;39844;52.496;13.482;2023-05-15T07:25:17;7.27;;;3.77;;
53931;SDS011;39844;52.496;13.482;2023-05-15T07:27:42;3.80;;;3.43;;
53931;SDS011;39844;52.496;13.482;2023-05-15T07:30:08;5.00;;;3.53;;
53931;SDS011;39844;52.496;13.482;2023-05-15T07:32:33;7.27;;;3.70;;
53931;SDS011;39844;52.496;13.482;2023-05-15T07:34:59;3.90;;;3.30;;
53931;SDS011;39844;52.496;13.482;2023-05-15T07:37:24;4.50;;;3.90;;
53931;SDS011;39844;52.496;13.482;2023-05-15T07:39:49;5.87;;;3.30;;
53931;SDS011;39844;52.496;13.482;2023-05-15T07:42:15;4.57;;;3.67;;
53931;SDS011;39844;52.496;13.482;2023-05-15T07:44:40;3.93;;;3.43;;
53931;SDS011;39844;52.496;13.482;2023-05-15T07:47:05;8.13;;;4.23;;
53931;SDS011;39844;52.496;13.482;2023-05-15T07:49:31;11.80;;;3.67;;
53931;SDS011;39844;52.496;13.482;2023-05-15T07:51:58;3.83;;;3.37;;
53931;SDS011;39844;52.496;13.482;2023-05-15T07:54:24;3.77;;;3.47;;
53931;SDS011;39844;52.496;13.482;2023-05-15T07:56:50;4.03;;;3.30;;
53931;SDS011;39844;52.496;13.482;2023-05-15T07:59:16;3.63;;;3.30;;
53931;SDS011;39844;52.496;13.482;2023-05-15T08:01:41;3.27;;;2.97;;
53931;SDS011;39844;52.496;13.482;2023-05-15T08:04:07;4.67;;;3.67;;
53931;SDS011;39844;52.496;13.482;2023-05-15T08:06:33;3.27;;;3.07;;
53931;SDS011;39844;52.496;13.482;2023-05-15T08:08:59;4.53;;;3.40;;
53931;SDS011;39844;52.496;13.482;2023-05-15T08:11:24;5.23;;;3.53;;
53931;SDS011;39844;52.496;13.482;2023-05-15T08:13:50;3.53;;;3.23;;
53931;SDS011;39844;52.496;13.482;2023-05-15T08:16:15;5.50;;;3.53;;
53931;SDS011;39844;52.496;13.482;2023-05-15T08:18:40;3.63;;;3.33;;
53931;SDS011;39844;52.496;13.482;2023-05-15T08:21:06;7.67;;;3.30;;
53931;SDS011;39844;52.496;13.482;2023-05-15T08:23:31;3.37;;;3.07;;
53931;SDS011;39844;52.496;13.482;2023-05-15T08:25:56;3.73;;;3.30;;
53931;SDS011;39844;52.496;13.482;2023-05-15T08:28:22;3.80;;;3.40;;
53931;SDS011;39844;52.496;13.482;2023-05-15T08:30:47;6.90;;;3.60;;
53931;SDS011;39844;52.496;13.482;2023-05-15T08:33:12;4.93;;;3.40;;
53931;SDS011;39844;52.496;13.482;2023-05-15T08:35:37;3.40;;;3.20;;
53931;SDS011;39844;52.496;13.482;2023-05-15T08:38:03;3.53;;;3.30;;
53931;SDS011;39844;52.496;13.482;2023-05-15T08:40:28;4.07;;;3.23;;
53931;SDS011;39844;52.496;13.482;2023-05-15T08:42:54;3.67;;;3.37;;
53931;SDS011;39844;52.496;13.482;2023-05-15T08:45:24;3.43;;;3.17;;
53931;SDS011;39844;52.496;13.482;2023-05-15T08:47:49;10.60;;;3.67;;
53931;SDS011;39844;52.496;13.482;2023-05-15T08:50:15;3.50;;;3.20;;
53931;SDS011;39844;52.496;13.482;2023-05-15T08:52:42;2.87;;;2.67;;
53931;SDS011;39844;52.496;13.482;2023-05-15T08:55:09;3.53;;;3.17;;
53931;SDS011;39844;52.496;13.482;2023-05-15T08:57:34;3.93;;;2.87;;
53931;SDS011;39844;52.496;13.482;2023-05-15T09:00:01;3.40;;;3.10;;
53931;SDS011;39844;52.496;13.482;2023-05-15T09:02:28;3.87;;;2.80;;
53931;SDS011;39844;52.496;13.482;2023-05-15T09:04:53;4.17;;;3.20;;
53931;SDS011;39844;52.496;13.482;2023-05-15T09:07:18;3.83;;;2.90;;
53931;SDS011;39844;52.496;13.482;2023-05-15T09:09:44;6.27;;;3.20;;
53931;SDS011;39844;52.496;13.482;2023-05-15T09:12:10;3.00;;;2.67;;
53931;SDS011;39844;52.496;13.482;2023-05-15T09:14:43;3.77;;;2.80;;
53931;SDS011;39844;52.496;13.482;2023-05-15T09:17:09;4.93;;;3.23;;
53931;SDS011;39844;52.496;13.482;2023-05-15T09:19:35;2.90;;;2.70;;
53931;SDS011;39844;52.496;13.482;2023-05-15T09:24:43;4.43;;;3.20;;
53931;SDS011;39844;52.496;13.482;2023-05-15T09:27:09;4.53;;;3.00;;
53931;SDS011;39844;52.496;13.482;2023-05-15T09:29:35;4.77;;;3.03;;
53931;SDS011;39844;52.496;13.482;2023-05-15T09:32:02;3.37;;;2.83;;
53931;SDS011;39844;52.496;13.482;2023-05-15T09:34:29;3.23;;;2.93;;
53931;SDS011;39844;52.496;13.482;2023-05-15T09:36:55;2.97;;;2.73;;
53931;SDS011;39844;52.496;13.482;2023-05-15T09:39:21;6.87;;;3.03;;
53931;SDS011;39844;52.496;13.482;2023-05-15T09:41:46;3.00;;;2.80;;
53931;SDS011;39844;52.496;13.482;2023-05-15T09:44:18;6.60;;;2.70;;
53931;SDS011;39844;52.496;13.482;2023-05-15T09:46:48;3.37;;;3.07;;
53931;SDS011;39844;52.496;13.482;2023-05-15T09:49:15;3.57;;;3.27;;
53931;SDS011;39844;52.496;13.482;2023-05-15T09:51:42;3.00;;;2.77;;
53931;SDS011;39844;52.496;13.482;2023-05-15T09:54:09;4.17;;;3.13;;
53931;SDS011;39844;52.496;13.482;2023-05-15T09:56:39;3.00;;;2.80;;
53931;SDS011;39844;52.496;13.482;2023-05-15T09:59:06;5.83;;;3.23;;
53931;SDS011;39844;52.496;13.482;2023-05-15T10:01:37;3.03;;;2.73;;
53931;SDS011;39844;52.496;13.482;2023-05-15T10:04:05;5.60;;;3.00;;
53931;SDS011;39844;52.496;13.482;2023-05-15T10:06:37;2.90;;;2.70;;
53931;SDS011;39844;52.496;13.482;2023-05-15T10:09:04;5.50;;;3.23;;
53931;SDS011;39844;52.496;13.482;2023-05-15T10:11:29;5.07;;;3.20;;
53931;SDS011;39844;52.496;13.482;2023-05-15T10:13:58;6.23;;;3.37;;
53931;SDS011;39844;52.496;13.482;2023-05-15T10:16:24;3.60;;;3.30;;
53931;SDS011;39844;52.496;13.482;2023-05-15T10:18:52;3.50;;;3.20;;
53931;SDS011;39844;52.496;13.482;2023-05-15T10:21:18;3.47;;;3.17;;
53931;SDS011;39844;52.496;13.482;2023-05-15T10:23:44;3.37;;;3.17;;
53931;SDS011;39844;52.496;13.482;2023-05-15T10:26:13;3.43;;;3.07;;
53931;SDS011;39844;52.496;13.482;2023-05-15T10:28:44;2.90;;;2.70;;
53931;SDS011;39844;52.496;13.482;2023-05-15T10:31:10;3.03;;;2.83;;
53931;SDS011;39844;52.496;13.482;2023-05-15T10:33:36;3.30;;;3.00;;
53931;SDS011;39844;52.496;13.482;2023-05-15T10:36:04;3.60;;;2.47;;
53931;SDS011;39844;52.496;13.482;2023-05-15T10:38:30;3.40;;;2.93;;
53931;SDS011;39844;52.496;13.482;2023-05-15T10:40:56;2.97;;;2.60;;
53931;SDS011;39844;52.496;13.482;2023-05-15T10:43:24;3.10;;;2.40;;
53931;SDS011;39844;52.496;13.482;2023-05-15T10:45:50;4.53;;;2.87;;
53931;SDS011;39844;52.496;13.482;2023-05-15T10:48:16;4.73;;;2.57;;
53931;SDS011;39844;52.496;13.482;2023-05-15T10:50:42;2.90;;;2.70;;
53931;SDS011;39844;52.496;13.482;2023-05-15T10:53:08;2.93;;;2.73;;
53931;SDS011;39844;52.496;13.482;2023-05-15T10:55:34;3.27;;;2.97;;
53931;SDS011;39844;52.496;13.482;2023-05-15T10:58:00;2.83;;;2.60;;
53931;SDS011;39844;52.496;13.482;2023-05-15T11:00:26;2.93;;;2.63;;
53931;SDS011;39844;52.496;13.482;2023-05-15T11:02:53;3.03;;;2.83;;
53931;SDS011;39844;52.496;13.482;2023-05-15T11:05:18;3.50;;;2.67;;
53931;SDS011;39844;52.496;13.482;2023-05-15T11:08:09;3.30;;;3.00;;
53931;SDS011;39844;52.496;13.482;2023-05-15T11:10:41;2.93;;;2.73;;
53931;SDS011;39844;52.496;13.482;2023-05-15T11:13:06;2.60;;;2.40;;
53931;SDS011;39844;52.496;13.482;2023-05-15T11:15:41;2.23;;;2.13;;
53931;SDS011;39844;52.496;13.482;2023-05-15T11:18:07;3.73;;;2.40;;
53931;SDS011;39844;52.496;13.482;2023-05-15T11:20:33;2.93;;;2.70;;
53931;SDS011;39844;52.496;13.482;2023-05-15T11:23:03;3.03;;;2.33;;
53931;SDS011;39844;52.496;13.482;2023-05-15T11:25:29;2.60;;;2.40;;
53931;SDS011;39844;52.496;13.482;2023-05-15T11:27:54;2.40;;;2.20;;
53931;SDS011;39844;52.496;13.482;2023-05-15T11:30:20;2.20;;;2.10;;
53931;SDS011;39844;52.496;13.482;2023-05-15T11:35:22;3.30;;;2.20;;
53931;SDS011;39844;52.496;13.482;2023-05-15T11:38:17;3.00;;;2.10;;
53931;SDS011;39844;52.496;13.482;2023-05-15T11:40:47;2.30;;;2.13;;
53931;SDS011;39844;52.496;13.482;2023-05-15T11:43:24;5.40;;;2.20;;
53931;SDS011;39844;52.496;13.482;2023-05-15T11:48:19;1.83;;;1.73;;
53931;SDS011;39844;52.496;13.482;2023-05-15T11:50:45;2.47;;;1.85;;
53931;SDS011;39844;52.496;13.482;2023-05-15T11:53:10;1.88;;;1.70;;
53931;SDS011;39844;52.496;13.482;2023-05-15T11:55:36;2.97;;;1.85;;
53931;SDS011;39844;52.496;13.482;2023-05-15T11:58:04;2.00;;;1.90;;
53931;SDS011;39844;52.496;13.482;2023-05-15T12:00:30;1.80;;;1.70;;
53931;SDS011;39844;52.496;13.482;2023-05-15T12:02:55;1.55;;;1.50;;
53931;SDS011;39844;52.496;13.482;2023-05-15T12:05:21;1.35;;;1.35;;
53931;SDS011;39844;52.496;13.482;2023-05-15T12:07:46;1.48;;;1.48;;
53931;SDS011;39844;52.496;13.482;2023-05-15T12:10:12;2.42;;;1.70;;
53931;SDS011;39844;52.496;13.482;2023-05-15T12:12:38;1.40;;;1.30;;
53931;SDS011;39844;52.496;13.482;2023-05-15T12:15:07;1.55;;;1.45;;
53931;SDS011;39844;52.496;13.482;2023-05-15T12:17:33;1.67;;;1.58;;
53931;SDS011;39844;52.496;13.482;2023-05-15T12:20:00;1.20;;;1.20;;
53931;SDS011;39844;52.496;13.482;2023-05-15T12:22:27;1.20;;;1.20;;
53931;SDS011;39844;52.496;13.482;2023-05-15T12:24:52;1.30;;;1.20;;
53931;SDS011;39844;52.496;13.482;2023-05-15T12:27:22;1.20;;;1.20;;
53931;SDS011;39844;52.496;13.482;2023-05-15T12:29:47;1.45;;;1.27;;
53931;SDS011;39844;52.496;13.482;2023-05-15T12:32:12;1.58;;;1.48;;
53931;SDS011;39844;52.496;13.482;2023-05-15T12:34:38;1.40;;;1.40;;
53931;SDS011;39844;52.496;13.482;2023-05-15T12:37:04;1.65;;;1.55;;
53931;SDS011;39844;52.496;13.482;2023-05-15T12:39:29;1.40;;;1.40;;
53931;SDS011;39844;52.496;13.482;2023-05-15T12:41:56;1.65;;;1.55;;
53931;SDS011;39844;52.496;13.482;2023-05-15T12:44:22;3.00;;;1.55;;
53931;SDS011;39844;52.496;13.482;2023-05-15T12:46:49;1.63;;;1.52;;
53931;SDS011;39844;52.496;13.482;2023-05-15T12:49:21;2.47;;;1.98;;
53931;SDS011;39844;52.496;13.482;2023-05-15T12:51:46;2.15;;;1.70;;
53931;SDS011;39844;52.496;13.482;2023-05-15T12:54:15;2.78;;;1.92;;
53931;SDS011;39844;52.496;13.482;2023-05-15T12:56:42;2.00;;;1.83;;
53931;SDS011;39844;52.496;13.482;2023-05-15T12:59:07;1.60;;;1.50;;
53931;SDS011;39844;52.496;13.482;2023-05-15T13:01:33;1.75;;;1.67;;
53931;SDS011;39844;52.496;13.482;2023-05-15T13:03:58;1.75;;;1.63;;
53931;SDS011;39844;52.496;13.482;2023-05-15T13:06:24;1.20;;;1.20;;
53931;SDS011;39844;52.496;13.482;2023-05-15T13:08:49;1.88;;;1.55;;
53931;SDS011;39844;52.496;13.482;2023-05-15T13:11:15;1.55;;;1.48;;
53931;SDS011;39844;52.496;13.482;2023-05-15T13:13:41;1.65;;;1.55;;
53931;SDS011;39844;52.496;13.482;2023-05-15T13:16:20;1.88;;;1.70;;
53931;SDS011;39844;52.496;13.482;2023-05-15T13:18:50;1.80;;;1.70;;
53931;SDS011;39844;52.496;13.482;2023-05-15T13:21:16;2.00;;;1.90;;
53931;SDS011;39844;52.496;13.482;2023-05-15T13:23:42;1.60;;;1.50;;
53931;SDS011;39844;52.496;13.482;2023-05-15T13:26:07;2.45;;;1.75;;
53931;SDS011;39844;52.496;13.482;2023-05-15T13:28:32;1.70;;;1.60;;
53931;SDS011;39844;52.496;13.482;2023-05-15T13:30:58;1.67;;;1.58;;
53931;SDS011;39844;52.496;13.482;2023-05-15T13:33:23;1.42;;;1.42;;
53931;SDS011;39844;52.496;13.482;2023-05-15T13:35:48;1.65;;;1.55;;
53931;SDS011;39844;52.496;13.482;2023-05-15T13:38:14;6.97;;;1.52;;
53931;SDS011;39844;52.496;13.482;2023-05-15T13:40:39;4.18;;;1.50;;
53931;SDS011;39844;52.496;13.482;2023-05-15T13:43:04;2.67;;;1.20;;
53931;SDS011;39844;52.496;13.482;2023-05-15T13:45:30;2.92;;;1.00;;
53931;SDS011;39844;52.496;13.482;2023-05-15T13:47:55;1.33;;;1.23;;
53931;SDS011;39844;52.496;13.482;2023-05-15T13:50:20;1.23;;;1.20;;
53931;SDS011;39844;52.496;13.482;2023-05-15T13:52:45;1.17;;;1.00;;
53931;SDS011;39844;52.496;13.482;2023-05-15T13:55:11;1.10;;;1.10;;
53931;SDS011;39844;52.496;13.482;2023-05-15T13:57:37;1.35;;;1.25;;
53931;SDS011;39844;52.496;13.482;2023-05-15T14:00:09;1.75;;;1.40;;
53931;SDS011;39844;52.496;13.482;2023-05-15T14:02:37;1.88;;;1.30;;
53931;SDS011;39844;52.496;13.482;2023-05-15T14:05:06;3.33;;;1.30;;
53931;SDS011;39844;52.496;13.482;2023-05-15T14:07:32;1.50;;;1.40;;
53931;SDS011;39844;52.496;13.482;2023-05-15T14:09:57;1.48;;;1.40;;
53931;SDS011;39844;52.496;13.482;2023-05-15T14:12:23;1.73;;;1.65;;
53931;SDS011;39844;52.496;13.482;2023-05-15T14:14:48;2.10;;;1.50;;
53931;SDS011;39844;52.496;13.482;2023-05-15T14:17:13;2.80;;;1.50;;
53931;SDS011;39844;52.496;13.482;2023-05-15T14:19:39;1.50;;;1.40;;
53931;SDS011;39844;52.496;13.482;2023-05-15T14:22:04;1.70;;;1.60;;
53931;SDS011;39844;52.496;13.482;2023-05-15T14:24:30;1.53;;;1.43;;
53931;SDS011;39844;52.496;13.482;2023-05-15T14:26:55;1.83;;;1.73;;
53931;SDS011;39844;52.496;13.482;2023-05-15T14:29:20;1.83;;;1.73;;
53931;SDS011;39844;52.496;13.482;2023-05-15T14:31:46;2.33;;;1.97;;
53931;SDS011;39844;52.496;13.482;2023-05-15T14:34:11;2.13;;;1.93;;
53931;SDS011;39844;52.496;13.482;2023-05-15T14:36:36;1.83;;;1.70;;
53931;SDS011;39844;52.496;13.482;2023-05-15T14:39:01;1.87;;;1.77;;
53931;SDS011;39844;52.496;13.482;2023-05-15T14:41:27;1.93;;;1.73;;
53931;SDS011;39844;52.496;13.482;2023-05-15T14:43:52;2.20;;;1.93;;
53931;SDS011;39844;52.496;13.482;2023-05-15T14:46:17;1.87;;;1.77;;
53931;SDS011;39844;52.496;13.482;2023-05-15T14:48:43;4.33;;;1.50;;
53931;SDS011;39844;52.496;13.482;2023-05-15T14:51:08;2.03;;;1.93;;
53931;SDS011;39844;52.496;13.482;2023-05-15T14:53:34;3.03;;;1.80;;
53931;SDS011;39844;52.496;13.482;2023-05-15T14:55:59;2.40;;;2.20;;